createdAt,value
2018-04-08T00:00:50.666Z,64.25
2018-04-08T00:01:51.338Z,64.15
2018-04-08T00:02:50.575Z,63.86
2018-04-08T00:03:51.343Z,64.34
2018-04-08T00:04:50.530Z,64.43
2018-04-08T00:05:50.540Z,64.25
2018-04-08T00:06:50.478Z,64.34
2018-04-08T00:07:50.459Z,64.25
2018-04-08T00:08:51.341Z,64.05
2018-04-08T00:09:50.406Z,64.15
2018-04-08T00:10:50.430Z,64.62
2018-04-08T00:11:50.450Z,64.72
2018-04-08T00:12:50.336Z,64.53
2018-04-08T00:13:50.381Z,64.34
2018-04-08T00:14:50.293Z,64.82
2018-04-08T00:15:50.387Z,64.43
2018-04-08T00:16:50.242Z,64.82
2018-04-08T00:17:50.221Z,64.82
2018-04-08T00:18:50.192Z,65.01
2018-04-08T00:19:50.842Z,65.20
2018-04-08T00:20:50.190Z,65.20
2018-04-08T00:21:50.120Z,64.82
2018-04-08T00:22:50.101Z,65.01
2018-04-08T00:23:50.072Z,64.82
2018-04-08T00:24:50.048Z,65.01
2018-04-08T00:25:50.155Z,65.11
2018-04-08T00:26:50.004Z,65.48
2018-04-08T00:27:49.980Z,65.58
2018-04-08T00:28:49.962Z,65.39
2018-04-08T00:29:49.932Z,65.97
2018-04-08T00:30:49.946Z,65.77
2018-04-08T00:31:49.881Z,65.48
2018-04-08T00:32:49.865Z,65.87
2018-04-08T00:33:50.340Z,65.48
2018-04-08T00:34:49.811Z,66.06
2018-04-08T00:35:49.824Z,65.97
2018-04-08T00:36:49.897Z,65.97
2018-04-08T00:37:49.747Z,66.06
2018-04-08T00:38:49.716Z,66.06
2018-04-08T00:39:50.342Z,66.13
2018-04-08T00:40:49.683Z,66.25
2018-04-08T00:41:49.683Z,66.44
2018-04-08T00:42:49.621Z,66.35
2018-04-08T00:43:49.617Z,66.79
2018-04-08T00:44:49.569Z,66.50
2018-04-08T00:45:50.344Z,67.08
2018-04-08T00:46:49.568Z,66.89
2018-04-08T00:47:49.517Z,66.89
2018-04-08T00:48:50.346Z,66.99
2018-04-08T00:49:49.445Z,66.89
2018-04-08T00:50:49.423Z,66.70
2018-04-08T00:51:49.455Z,66.41
2018-04-08T00:52:50.347Z,66.41
2018-04-08T00:53:49.385Z,66.99
2018-04-08T00:54:49.422Z,66.79
2018-04-08T00:55:49.307Z,66.99
2018-04-08T00:56:49.848Z,66.99
2018-04-08T00:57:49.307Z,67.18
2018-04-08T00:58:49.232Z,67.46
2018-04-08T00:59:49.844Z,67.27
2018-04-08T01:00:49.184Z,67.46
2018-04-08T01:01:49.164Z,67.27
2018-04-08T01:02:49.381Z,67.36
2018-04-08T01:03:49.115Z,66.99
2018-04-08T01:04:49.089Z,67.46
2018-04-08T01:05:49.061Z,67.84
2018-04-08T01:06:49.842Z,67.36
2018-04-08T01:07:49.043Z,67.84
2018-04-08T01:08:48.992Z,67.75
2018-04-08T01:09:49.012Z,67.94
2018-04-08T01:10:49.847Z,67.94
2018-04-08T01:11:48.916Z,68.32
2018-04-08T01:12:48.892Z,68.04
2018-04-08T01:13:49.385Z,68.13
2018-04-08T01:14:48.892Z,67.65
2018-04-08T01:15:48.823Z,68.41
2018-04-08T01:16:49.350Z,68.48
2018-04-08T01:17:48.770Z,68.32
2018-04-08T01:18:49.353Z,68.96
2018-04-08T01:19:48.787Z,68.80
2018-04-08T01:20:48.699Z,68.90
2018-04-08T01:21:48.674Z,68.80
2018-04-08T01:22:49.352Z,68.90
2018-04-08T01:23:48.627Z,68.57
2018-04-08T01:24:48.643Z,68.76
2018-04-08T01:25:49.359Z,68.61
2018-04-08T01:26:48.595Z,68.80
2018-04-08T01:27:48.534Z,68.41
2018-04-08T01:28:51.350Z,68.41
2018-04-08T01:29:48.517Z,69.05
2018-04-08T01:30:48.505Z,68.96
2018-04-08T01:31:48.432Z,68.86
2018-04-08T01:32:48.409Z,68.70
2018-04-08T01:33:48.382Z,69.34
2018-04-08T01:34:49.357Z,69.62
2018-04-08T01:35:48.365Z,69.34
2018-04-08T01:36:48.311Z,69.53
2018-04-08T01:37:48.404Z,69.72
2018-04-08T01:38:48.265Z,69.43
2018-04-08T01:39:48.237Z,69.34
2018-04-08T01:40:48.218Z,69.91
2018-04-08T01:41:48.204Z,69.72
2018-04-08T01:42:48.208Z,70.10
2018-04-08T01:43:48.143Z,69.91
2018-04-08T01:44:48.116Z,70.10
2018-04-08T01:45:48.093Z,70.01
2018-04-08T01:46:48.066Z,70.39
2018-04-08T01:47:48.403Z,70.20
2018-04-08T01:48:48.017Z,70.58
2018-04-08T01:49:47.989Z,70.67
2018-04-08T01:50:47.968Z,70.29
2018-04-08T01:51:47.954Z,70.67
2018-04-08T01:52:47.959Z,70.67
2018-04-08T01:53:47.928Z,70.58
2018-04-08T01:54:47.912Z,70.77
2018-04-08T01:55:48.352Z,70.67
2018-04-08T01:56:47.827Z,70.48
2018-04-08T01:57:47.800Z,70.58
2018-04-08T01:58:47.906Z,70.58
2018-04-08T01:59:47.747Z,70.77
2018-04-08T02:00:48.357Z,70.96
2018-04-08T02:01:47.700Z,70.67
2018-04-08T02:02:47.673Z,70.48
2018-04-08T02:03:47.899Z,70.29
2018-04-08T02:04:47.632Z,70.96
2018-04-08T02:05:47.642Z,71.34
2018-04-08T02:06:48.357Z,71.15
2018-04-08T02:07:47.578Z,71.06
2018-04-08T02:08:47.533Z,70.92
2018-04-08T02:09:47.894Z,71.34
2018-04-08T02:10:47.510Z,71.06
2018-04-08T02:11:47.465Z,71.02
2018-04-08T02:12:48.356Z,71.12
2018-04-08T02:13:47.408Z,71.21
2018-04-08T02:14:47.379Z,71.31
2018-04-08T02:15:47.392Z,71.06
2018-04-08T02:16:47.329Z,71.12
2018-04-08T02:17:47.305Z,71.02
2018-04-08T02:18:47.858Z,71.12
2018-04-08T02:19:47.254Z,70.83
2018-04-08T02:20:47.270Z,71.31
2018-04-08T02:21:47.247Z,71.21
2018-04-08T02:22:47.857Z,71.41
2018-04-08T02:23:47.158Z,71.59
2018-04-08T02:24:47.135Z,71.31
2018-04-08T02:25:47.403Z,71.31
2018-04-08T02:26:47.080Z,71.02
2018-04-08T02:27:47.063Z,71.31
2018-04-08T02:28:47.067Z,71.31
2018-04-08T02:29:47.856Z,71.31
2018-04-08T02:30:46.984Z,71.31
2018-04-08T02:31:46.998Z,71.50
2018-04-08T02:32:47.405Z,71.31
2018-04-08T02:33:46.956Z,71.31
2018-04-08T02:34:46.891Z,71.31
2018-04-08T02:35:47.860Z,71.50
2018-04-08T02:36:46.856Z,71.88
2018-04-08T02:37:46.818Z,71.59
2018-04-08T02:38:46.908Z,71.69
2018-04-08T02:39:46.800Z,71.69
2018-04-08T02:40:46.739Z,71.69
2018-04-08T02:41:46.717Z,71.69
2018-04-08T02:42:47.365Z,71.78
2018-04-08T02:43:47.266Z,71.59
2018-04-08T02:44:46.692Z,71.41
2018-04-08T02:45:46.614Z,71.88
2018-04-08T02:46:47.360Z,71.78
2018-04-08T02:47:46.580Z,71.41
2018-04-08T02:48:46.549Z,71.50
2018-04-08T02:49:46.547Z,71.78
2018-04-08T02:50:46.499Z,71.59
2018-04-08T02:51:46.513Z,71.59
2018-04-08T02:52:46.444Z,72.07
2018-04-08T02:53:46.416Z,72.26
2018-04-08T02:54:46.391Z,72.07
2018-04-08T02:55:47.363Z,72.07
2018-04-08T02:56:46.389Z,71.98
2018-04-08T02:57:46.318Z,72.36
2018-04-08T02:58:46.866Z,72.26
2018-04-08T02:59:46.267Z,72.64
2018-04-08T03:00:46.243Z,72.51
2018-04-08T03:01:46.254Z,72.61
2018-04-08T03:02:46.202Z,72.55
2018-04-08T03:03:46.863Z,72.51
2018-04-08T03:04:46.185Z,72.89
2018-04-08T03:05:46.121Z,72.71
2018-04-08T03:06:46.097Z,72.61
2018-04-08T03:07:46.067Z,72.61
2018-04-08T03:08:46.046Z,72.71
2018-04-08T03:09:46.410Z,72.71
2018-04-08T03:10:45.991Z,72.61
2018-04-08T03:11:45.982Z,72.51
2018-04-08T03:12:46.414Z,72.71
2018-04-08T03:13:45.921Z,72.51
2018-04-08T03:14:45.949Z,72.80
2018-04-08T03:15:45.872Z,73.18
2018-04-08T03:16:45.851Z,72.80
2018-04-08T03:17:46.365Z,73.66
2018-04-08T03:18:45.793Z,73.28
2018-04-08T03:19:45.920Z,73.47
2018-04-08T03:20:45.749Z,73.56
2018-04-08T03:21:46.364Z,73.37
2018-04-08T03:22:45.725Z,73.47
2018-04-08T03:23:45.669Z,73.47
2018-04-08T03:24:45.922Z,73.56
2018-04-08T03:25:45.624Z,73.66
2018-04-08T03:26:45.634Z,73.37
2018-04-08T03:27:46.366Z,73.56
2018-04-08T03:28:45.575Z,73.66
2018-04-08T03:29:45.927Z,73.56
2018-04-08T03:30:45.492Z,73.37
2018-04-08T03:31:45.471Z,73.56
2018-04-08T03:32:46.369Z,73.08
2018-04-08T03:33:45.416Z,73.94
2018-04-08T03:34:45.438Z,73.56
2018-04-08T03:35:45.868Z,73.18
2018-04-08T03:36:45.352Z,73.72
2018-04-08T03:37:45.316Z,73.52
2018-04-08T03:38:45.328Z,73.81
2018-04-08T03:39:45.271Z,73.81
2018-04-08T03:40:45.419Z,73.81
2018-04-08T03:41:45.217Z,73.91
2018-04-08T03:42:45.194Z,74.01
2018-04-08T03:43:45.870Z,73.91
2018-04-08T03:44:45.139Z,73.91
2018-04-08T03:45:45.159Z,73.72
2018-04-08T03:46:45.879Z,73.72
2018-04-08T03:47:45.064Z,73.24
2018-04-08T03:48:45.040Z,73.24
2018-04-08T03:49:45.013Z,73.81
2018-04-08T03:50:45.032Z,74.10
2018-04-08T03:51:45.873Z,74.01
2018-04-08T03:52:44.938Z,73.62
2018-04-08T03:53:44.921Z,74.29
2018-04-08T03:54:44.887Z,73.91
2018-04-08T03:55:44.920Z,74.10
2018-04-08T03:56:44.842Z,74.01
2018-04-08T03:57:44.816Z,74.29
2018-04-08T03:58:44.782Z,73.91
2018-04-08T03:59:44.775Z,74.29
2018-04-08T04:00:44.767Z,74.19
2018-04-08T04:01:44.925Z,74.77
2018-04-08T04:02:44.685Z,74.67
2018-04-08T04:03:44.657Z,74.67
2018-04-08T04:04:45.382Z,74.67
2018-04-08T04:05:44.605Z,74.86
2018-04-08T04:06:44.624Z,74.77
2018-04-08T04:07:44.560Z,75.05
2018-04-08T04:08:45.371Z,74.29
2018-04-08T04:09:44.507Z,74.48
2018-04-08T04:10:44.484Z,74.29
2018-04-08T04:11:44.490Z,74.19
2018-04-08T04:12:44.428Z,74.19
2018-04-08T04:13:45.303Z,73.91
2018-04-08T04:14:44.378Z,74.19
2018-04-08T04:15:44.362Z,74.29
2018-04-08T04:16:44.363Z,74.29
2018-04-08T04:17:44.328Z,73.91
2018-04-08T04:18:44.360Z,73.91
2018-04-08T04:19:44.249Z,74.10
2018-04-08T04:20:44.224Z,74.19
2018-04-08T04:21:44.235Z,73.91
2018-04-08T04:22:44.441Z,73.96
2018-04-08T04:23:44.148Z,74.10
2018-04-08T04:24:44.129Z,74.16
2018-04-08T04:25:44.874Z,74.10
2018-04-08T04:26:44.069Z,73.91
2018-04-08T04:27:44.417Z,74.16
2018-04-08T04:28:44.064Z,74.19
2018-04-08T04:29:43.997Z,74.10
2018-04-08T04:30:44.884Z,74.06
2018-04-08T04:31:43.945Z,74.16
2018-04-08T04:32:43.920Z,73.96
2018-04-08T04:33:44.415Z,74.16
2018-04-08T04:34:43.864Z,73.87
2018-04-08T04:35:43.860Z,74.10
2018-04-08T04:36:43.816Z,74.10
2018-04-08T04:37:43.810Z,73.87
2018-04-08T04:38:43.923Z,74.16
2018-04-08T04:39:43.740Z,74.06
2018-04-08T04:40:43.714Z,74.06
2018-04-08T04:41:43.932Z,73.96
2018-04-08T04:42:43.666Z,74.16
2018-04-08T04:43:43.634Z,74.82
2018-04-08T04:44:43.616Z,74.54
2018-04-08T04:45:43.636Z,74.44
2018-04-08T04:46:43.567Z,74.25
2018-04-08T04:47:43.550Z,74.82
2018-04-08T04:48:43.510Z,75.11
2018-04-08T04:49:43.484Z,74.82
2018-04-08T04:50:43.508Z,74.92
2018-04-08T04:51:43.433Z,74.92
2018-04-08T04:52:43.404Z,74.63
2018-04-08T04:53:43.376Z,74.92
2018-04-08T04:54:43.353Z,75.20
2018-04-08T04:55:43.363Z,75.01
2018-04-08T04:56:43.305Z,74.92
2018-04-08T04:57:43.311Z,74.92
2018-04-08T04:58:43.256Z,74.82
2018-04-08T04:59:43.227Z,74.73
2018-04-08T05:00:43.202Z,75.20
2018-04-08T05:01:43.176Z,74.82
2018-04-08T05:02:43.190Z,74.82
2018-04-08T05:03:43.137Z,74.63
2018-04-08T05:04:43.881Z,75.01
2018-04-08T05:05:43.074Z,74.82
2018-04-08T05:06:43.047Z,74.82
2018-04-08T05:07:43.068Z,74.92
2018-04-08T05:08:42.997Z,75.01
2018-04-08T05:09:42.975Z,74.73
2018-04-08T05:10:42.942Z,74.82
2018-04-08T05:11:42.920Z,75.20
2018-04-08T05:12:42.934Z,75.68
2018-04-08T05:13:42.865Z,75.59
2018-04-08T05:14:42.840Z,75.68
2018-04-08T05:15:42.813Z,75.96
2018-04-08T05:16:42.788Z,75.87
2018-04-08T05:17:42.813Z,75.78
2018-04-08T05:18:42.853Z,75.87
2018-04-08T05:19:43.406Z,75.87
2018-04-08T05:20:42.701Z,75.40
2018-04-08T05:21:42.665Z,75.78
2018-04-08T05:22:42.684Z,75.78
2018-04-08T05:23:42.649Z,75.87
2018-04-08T05:24:42.986Z,76.06
2018-04-08T05:25:43.385Z,75.87
2018-04-08T05:26:42.531Z,75.68
2018-04-08T05:27:42.505Z,75.78
2018-04-08T05:28:42.484Z,75.68
2018-04-08T05:29:42.938Z,75.78
2018-04-08T05:30:42.428Z,75.87
2018-04-08T05:31:42.412Z,75.68
2018-04-08T05:32:42.396Z,75.59
2018-04-08T05:33:42.447Z,75.68
2018-04-08T05:34:42.334Z,75.68
2018-04-08T05:35:42.321Z,75.68
2018-04-08T05:36:42.340Z,75.59
2018-04-08T05:37:42.263Z,75.68
2018-04-08T05:38:42.291Z,75.87
2018-04-08T05:39:42.205Z,75.78
2018-04-08T05:40:42.216Z,75.96
2018-04-08T05:41:42.153Z,75.68
2018-04-08T05:42:42.117Z,75.78
2018-04-08T05:43:42.137Z,75.59
2018-04-08T05:44:42.072Z,75.59
2018-04-08T05:45:42.053Z,75.59
2018-04-08T05:46:42.023Z,75.78
2018-04-08T05:47:42.002Z,75.78
2018-04-08T05:48:42.008Z,75.30
2018-04-08T05:49:41.940Z,75.68
2018-04-08T05:50:41.960Z,75.59
2018-04-08T05:51:41.885Z,75.40
2018-04-08T05:52:41.868Z,75.78
2018-04-08T05:53:41.893Z,75.68
2018-04-08T05:54:41.809Z,75.96
2018-04-08T05:55:41.796Z,75.40
2018-04-08T05:56:41.760Z,75.59
2018-04-08T05:57:41.785Z,75.40
2018-04-08T05:58:41.764Z,75.01
2018-04-08T05:59:41.680Z,74.82
2018-04-08T06:00:41.659Z,74.73
2018-04-08T06:01:41.676Z,74.54
2018-04-08T06:02:41.600Z,74.82
2018-04-08T06:03:41.628Z,74.73
2018-04-08T06:04:41.591Z,74.54
2018-04-08T06:05:41.560Z,74.35
2018-04-08T06:06:41.501Z,74.44
2018-04-08T06:07:41.483Z,74.73
2018-04-08T06:08:41.543Z,74.92
2018-04-08T06:09:41.424Z,75.01
2018-04-08T06:10:41.395Z,74.92
2018-04-08T06:11:41.409Z,74.38
2018-04-08T06:12:41.349Z,74.48
2018-04-08T06:13:41.364Z,74.29
2018-04-08T06:14:41.329Z,74.19
2018-04-08T06:15:41.267Z,73.81
2018-04-08T06:16:41.240Z,74.10
2018-04-08T06:17:41.253Z,73.81
2018-04-08T06:18:41.233Z,73.81
2018-04-08T06:19:41.160Z,74.01
2018-04-08T06:20:41.168Z,73.91
2018-04-08T06:21:41.114Z,74.01
2018-04-08T06:22:41.131Z,74.01
2018-04-08T06:23:41.067Z,73.33
2018-04-08T06:24:41.034Z,73.43
2018-04-08T06:25:41.008Z,72.86
2018-04-08T06:26:40.986Z,73.05
2018-04-08T06:27:40.993Z,72.96
2018-04-08T06:28:40.939Z,73.05
2018-04-08T06:29:40.909Z,72.48
2018-04-08T06:30:40.878Z,72.86
2018-04-08T06:31:40.990Z,72.38
2018-04-08T06:32:40.829Z,72.48
2018-04-08T06:33:40.806Z,72.38
2018-04-08T06:34:40.776Z,72.38
2018-04-08T06:35:40.812Z,72.57
2018-04-08T06:36:40.729Z,72.57
2018-04-08T06:37:40.709Z,72.51
2018-04-08T06:38:40.684Z,72.42
2018-04-08T06:39:40.652Z,71.94
2018-04-08T06:40:40.684Z,71.37
2018-04-08T06:41:41.392Z,71.75
2018-04-08T06:42:40.580Z,71.84
2018-04-08T06:43:40.554Z,71.56
2018-04-08T06:44:40.527Z,71.56
2018-04-08T06:45:40.564Z,72.23
2018-04-08T06:46:41.392Z,72.13
2018-04-08T06:47:40.458Z,71.75
2018-04-08T06:48:40.429Z,71.56
2018-04-08T06:49:40.406Z,71.18
2018-04-08T06:50:40.420Z,70.79
2018-04-08T06:51:40.894Z,71.12
2018-04-08T06:52:40.363Z,71.21
2018-04-08T06:53:40.303Z,70.16
2018-04-08T06:54:40.284Z,70.54
2018-04-08T06:55:40.254Z,69.97
2018-04-08T06:56:40.277Z,69.68
2018-04-08T06:57:40.237Z,69.87
2018-04-08T06:58:40.176Z,70.26
2018-04-08T06:59:40.157Z,69.68
2018-04-08T07:00:40.130Z,69.68
2018-04-08T07:01:40.104Z,69.40
2018-04-08T07:02:40.121Z,69.31
2018-04-08T07:03:40.055Z,69.40
2018-04-08T07:04:40.026Z,69.40
2018-04-08T07:05:40.001Z,69.31
2018-04-08T07:06:39.986Z,69.02
2018-04-08T07:07:39.990Z,68.96
2018-04-08T07:08:39.930Z,69.24
2018-04-08T07:09:39.903Z,68.29
2018-04-08T07:10:39.881Z,68.51
2018-04-08T07:11:39.857Z,67.43
2018-04-08T07:12:39.869Z,67.18
2018-04-08T07:13:39.849Z,66.60
2018-04-08T07:14:39.779Z,66.22
2018-04-08T07:15:39.764Z,65.36
2018-04-08T07:16:39.749Z,65.74
2018-04-08T07:17:39.712Z,65.36
2018-04-08T07:18:39.732Z,65.36
2018-04-08T07:19:39.666Z,65.36
2018-04-08T07:20:39.644Z,65.55
2018-04-08T07:21:39.612Z,64.91
2018-04-08T07:22:39.588Z,64.72
2018-04-08T07:23:39.636Z,63.96
2018-04-08T07:24:39.599Z,64.43
2018-04-08T07:25:39.552Z,63.48
2018-04-08T07:26:39.493Z,63.00
2018-04-08T07:27:39.472Z,63.29
2018-04-08T07:28:39.487Z,63.19
2018-04-08T07:29:39.456Z,63.10
2018-04-08T07:30:39.397Z,63.10
2018-04-08T07:31:39.373Z,63.00
2018-04-08T07:32:39.391Z,62.71
2018-04-08T07:33:39.325Z,63.10
2018-04-08T07:34:39.337Z,63.00
2018-04-08T07:35:39.281Z,62.84
2018-04-08T07:36:39.298Z,62.55
2018-04-08T07:37:39.236Z,61.88
2018-04-08T07:38:39.211Z,61.22
2018-04-08T07:39:39.224Z,60.58
2018-04-08T07:40:39.162Z,60.38
2018-04-08T07:41:39.178Z,60.38
2018-04-08T07:42:39.120Z,60.29
2018-04-08T07:43:39.094Z,59.62
2018-04-08T07:44:39.080Z,59.33
2018-04-08T07:45:39.083Z,59.55
2018-04-08T07:46:39.027Z,59.08
2018-04-08T07:47:38.998Z,58.69
2018-04-08T07:48:38.979Z,57.73
2018-04-08T07:49:39.010Z,57.16
2018-04-08T07:50:38.973Z,57.45
2018-04-08T07:51:38.911Z,57.45
2018-04-08T07:52:38.889Z,57.92
2018-04-08T07:53:39.404Z,58.12
2018-04-08T07:54:38.846Z,58.31
2018-04-08T07:55:38.876Z,58.12
2018-04-08T07:56:38.796Z,57.83
2018-04-08T07:57:38.772Z,57.45
2018-04-08T07:58:38.772Z,57.92
2018-04-08T07:59:38.730Z,57.73
2018-04-08T08:00:38.803Z,57.83
2018-04-08T08:01:38.687Z,57.64
2018-04-08T08:02:38.663Z,58.02
2018-04-08T08:03:38.651Z,58.22
2018-04-08T08:04:38.621Z,57.73
2018-04-08T08:05:38.638Z,57.35
2018-04-08T08:06:38.577Z,57.35
2018-04-08T08:07:38.596Z,57.83
2018-04-08T08:08:38.537Z,58.12
2018-04-08T08:09:39.413Z,57.54
2018-04-08T08:10:38.495Z,57.76
2018-04-08T08:11:38.470Z,57.76
2018-04-08T08:12:38.539Z,57.09
2018-04-08T08:13:38.432Z,55.75
2018-04-08T08:14:38.444Z,55.78
2018-04-08T08:15:38.391Z,55.30
2018-04-08T08:16:38.374Z,55.13
2018-04-08T08:17:38.351Z,54.27
2018-04-08T08:18:38.360Z,54.08
2018-04-08T08:19:38.367Z,53.41
2018-04-08T08:20:38.296Z,53.12
2018-04-08T08:21:38.278Z,53.22
2018-04-08T08:22:38.262Z,53.22
2018-04-08T08:23:38.249Z,53.31
2018-04-08T08:24:38.263Z,53.31
2018-04-08T08:25:38.252Z,53.22
2018-04-08T08:26:38.191Z,53.03
2018-04-08T08:27:38.174Z,53.24
2018-04-08T08:28:38.164Z,52.07
2018-04-08T08:29:38.175Z,53.22
2018-04-08T08:30:38.162Z,53.12
2018-04-08T08:31:38.143Z,53.31
2018-04-08T08:32:38.105Z,53.22
2018-04-08T08:33:38.081Z,53.12
2018-04-08T08:34:38.113Z,53.67
2018-04-08T08:35:38.061Z,53.60
2018-04-08T08:36:38.073Z,53.03
2018-04-08T08:37:38.020Z,52.09
2018-04-08T08:38:38.007Z,52.00
2018-04-08T08:39:37.991Z,52.00
2018-04-08T08:40:37.979Z,51.06
2018-04-08T08:41:38.033Z,51.06
2018-04-08T08:42:37.952Z,50.49
2018-04-08T08:43:37.980Z,50.78
2018-04-08T08:44:37.931Z,50.87
2018-04-08T08:45:37.946Z,50.58
2018-04-08T08:46:37.897Z,50.58
2018-04-08T08:47:37.887Z,51.16
2018-04-08T08:48:37.875Z,50.78
2018-04-08T08:49:37.863Z,50.58
2018-04-08T08:50:37.880Z,51.16
2018-04-08T08:51:37.871Z,50.49
2018-04-08T08:52:37.828Z,49.91
2018-04-08T08:53:37.820Z,50.01
2018-04-08T08:54:37.806Z,49.62
2018-04-08T08:55:37.784Z,49.72
2018-04-08T08:56:37.831Z,50.08
2018-04-08T08:57:37.794Z,50.29
2018-04-08T08:58:37.756Z,49.82
2018-04-08T08:59:37.745Z,50.20
2018-04-08T09:00:37.732Z,50.10
2018-04-08T09:01:37.750Z,49.24
2018-04-08T09:02:37.709Z,49.07
2018-04-08T09:03:37.985Z,48.69
2018-04-08T09:04:37.692Z,48.79
2018-04-08T09:05:37.962Z,48.30
2018-04-08T09:06:37.882Z,48.57
2018-04-08T09:07:38.423Z,48.97
2018-04-08T09:08:37.690Z,48.88
2018-04-08T09:09:37.632Z,48.97
2018-04-08T09:10:37.633Z,48.40
2018-04-08T09:11:37.623Z,48.11
2018-04-08T09:12:37.986Z,48.43
2018-04-08T09:13:37.589Z,47.75
2018-04-08T09:14:37.583Z,48.43
2018-04-08T09:15:37.573Z,48.71
2018-04-08T09:16:37.679Z,48.93
2018-04-08T09:17:37.981Z,47.30
2018-04-08T09:18:37.535Z,46.62
2018-04-08T09:19:37.536Z,47.30
2018-04-08T09:20:37.528Z,47.58
2018-04-08T09:21:37.506Z,46.91
2018-04-08T09:22:37.977Z,47.00
2018-04-08T09:23:37.606Z,46.43
2018-04-08T09:24:37.484Z,46.64
2018-04-08T09:25:37.481Z,46.45
2018-04-08T09:26:37.470Z,45.78
2018-04-08T09:27:37.458Z,45.95
2018-04-08T09:28:37.980Z,46.72
2018-04-08T09:29:37.453Z,46.26
2018-04-08T09:30:37.435Z,46.36
2018-04-08T09:31:37.444Z,45.49
2018-04-08T09:32:37.424Z,45.61
2018-04-08T09:33:37.442Z,45.51
2018-04-08T09:34:37.402Z,45.05
2018-04-08T09:35:37.401Z,44.67
2018-04-08T09:36:37.383Z,44.67
2018-04-08T09:37:37.374Z,44.38
2018-04-08T09:38:37.402Z,44.11
2018-04-08T09:39:37.950Z,44.48
2018-04-08T09:40:37.352Z,44.59
2018-04-08T09:41:37.377Z,44.02
2018-04-08T09:42:37.347Z,43.92
2018-04-08T09:43:37.369Z,43.82
2018-04-08T09:44:37.358Z,43.99
2018-04-08T09:45:37.361Z,43.44
2018-04-08T09:46:37.338Z,43.34
2018-04-08T09:47:37.301Z,43.24
2018-04-08T09:48:37.312Z,43.24
2018-04-08T09:49:37.936Z,42.67
2018-04-08T09:50:37.282Z,42.76
2018-04-08T09:51:37.370Z,42.96
2018-04-08T09:52:37.268Z,43.15
2018-04-08T09:53:37.250Z,43.15
2018-04-08T09:54:37.941Z,43.24
2018-04-08T09:55:37.332Z,43.27
2018-04-08T09:56:37.238Z,43.34
2018-04-08T09:57:37.221Z,43.15
2018-04-08T09:58:37.215Z,43.54
2018-04-08T09:59:37.235Z,43.80
2018-04-08T10:00:37.268Z,43.61
2018-04-08T10:01:37.201Z,43.99
2018-04-08T10:02:37.238Z,43.61
2018-04-08T10:03:37.203Z,44.19
2018-04-08T10:04:37.186Z,44.57
2018-04-08T10:05:37.208Z,43.99
2018-04-08T10:06:37.225Z,43.80
2018-04-08T10:07:37.172Z,43.73
2018-04-08T10:08:37.216Z,44.21
2018-04-08T10:09:37.148Z,43.44
2018-04-08T10:10:37.157Z,43.07
2018-04-08T10:11:37.141Z,42.59
2018-04-08T10:12:37.124Z,42.02
2018-04-08T10:13:37.165Z,41.82
2018-04-08T10:14:37.107Z,42.30
2018-04-08T10:15:37.109Z,42.40
2018-04-08T10:16:37.207Z,42.30
2018-04-08T10:17:37.099Z,42.23
2018-04-08T10:18:37.128Z,42.23
2018-04-08T10:19:37.080Z,41.46
2018-04-08T10:20:37.168Z,42.13
2018-04-08T10:21:37.066Z,41.84
2018-04-08T10:22:37.074Z,41.82
2018-04-08T10:23:37.091Z,41.94
2018-04-08T10:24:37.043Z,42.13
2018-04-08T10:25:37.038Z,41.65
2018-04-08T10:26:37.045Z,40.97
2018-04-08T10:27:37.025Z,40.69
2018-04-08T10:28:37.069Z,40.12
2018-04-08T10:29:37.013Z,39.91
2018-04-08T10:30:37.019Z,40.11
2018-04-08T10:31:37.006Z,41.82
2018-04-08T10:32:37.016Z,42.30
2018-04-08T10:33:37.027Z,43.58
2018-04-08T10:34:37.027Z,42.73
2018-04-08T10:35:38.090Z,40.61
2018-04-08T10:36:36.971Z,40.24
2018-04-08T10:37:36.965Z,39.57
2018-04-08T10:38:37.948Z,39.37
2018-04-08T10:39:36.986Z,39.86
2018-04-08T10:40:36.945Z,40.44
2018-04-08T10:41:37.143Z,39.76
2018-04-08T10:42:36.936Z,39.86
2018-04-08T10:43:37.457Z,39.57
2018-04-08T10:44:36.922Z,39.95
2018-04-08T10:45:37.011Z,39.66
2018-04-08T10:46:36.946Z,39.47
2018-04-08T10:47:36.908Z,40.22
2018-04-08T10:48:37.454Z,40.97
2018-04-08T10:49:36.942Z,40.69
2018-04-08T10:50:36.886Z,41.36
2018-04-08T10:51:36.891Z,40.88
2018-04-08T10:52:36.869Z,40.88
2018-04-08T10:53:37.449Z,40.51
2018-04-08T10:54:36.902Z,40.22
2018-04-08T10:55:36.851Z,39.95
2018-04-08T10:56:36.878Z,39.95
2018-04-08T10:57:36.843Z,39.37
2018-04-08T10:58:37.458Z,40.44
2018-04-08T10:59:36.837Z,39.86
2018-04-08T11:00:36.904Z,39.47
2018-04-08T11:01:36.857Z,39.20
2018-04-08T11:02:36.855Z,39.20
2018-04-08T11:03:36.805Z,37.95
2018-04-08T11:04:37.004Z,37.67
2018-04-08T11:05:36.846Z,37.60
2018-04-08T11:06:36.785Z,36.82
2018-04-08T11:07:36.784Z,36.24
2018-04-08T11:08:36.774Z,36.82
2018-04-08T11:09:36.781Z,36.44
2018-04-08T11:10:36.825Z,36.92
2018-04-08T11:11:37.459Z,36.15
2018-04-08T11:12:36.748Z,36.34
2018-04-08T11:13:36.740Z,35.76
2018-04-08T11:14:36.767Z,35.66
2018-04-08T11:15:36.732Z,36.05
2018-04-08T11:16:36.767Z,35.64
2018-04-08T11:17:36.714Z,36.42
2018-04-08T11:18:36.709Z,36.42
2018-04-08T11:19:36.704Z,36.98
2018-04-08T11:20:36.694Z,37.46
2018-04-08T11:21:36.730Z,37.75
2018-04-08T11:22:37.461Z,37.46
2018-04-08T11:23:36.683Z,38.04
2018-04-08T11:24:36.670Z,38.16
2018-04-08T11:25:36.702Z,37.79
2018-04-08T11:26:36.661Z,35.86
2018-04-08T11:27:37.464Z,35.76
2018-04-08T11:28:36.677Z,35.78
2018-04-08T11:29:36.642Z,35.20
2018-04-08T11:30:36.667Z,35.47
2018-04-08T11:31:36.729Z,36.15
2018-04-08T11:32:36.627Z,36.61
2018-04-08T11:33:36.657Z,36.42
2018-04-08T11:34:36.662Z,36.52
2018-04-08T11:35:36.606Z,36.52
2018-04-08T11:36:36.599Z,37.19
2018-04-08T11:37:37.466Z,36.52
2018-04-08T11:38:36.586Z,36.32
2018-04-08T11:39:36.612Z,36.53
2018-04-08T11:40:36.580Z,35.66
2018-04-08T11:41:36.627Z,35.28
2018-04-08T11:42:37.016Z,34.97
2018-04-08T11:43:36.556Z,35.74
2018-04-08T11:44:36.549Z,36.52
2018-04-08T11:45:36.553Z,36.34
2018-04-08T11:46:36.665Z,36.24
2018-04-08T11:47:36.527Z,35.57
2018-04-08T11:48:36.531Z,34.91
2018-04-08T11:49:36.522Z,35.58
2018-04-08T11:50:36.510Z,35.49
2018-04-08T11:51:36.543Z,35.78
2018-04-08T11:52:37.026Z,35.31
2018-04-08T11:53:36.487Z,35.31
2018-04-08T11:54:36.490Z,34.34
2018-04-08T11:55:36.482Z,34.94
2018-04-08T11:56:36.477Z,34.27
2018-04-08T11:57:36.506Z,34.28
2018-04-08T11:58:36.462Z,33.70
2018-04-08T11:59:36.470Z,33.12
2018-04-08T12:00:36.449Z,33.59
2018-04-08T12:01:38.449Z,33.47
2018-04-08T12:02:36.466Z,34.25
2018-04-08T12:03:36.486Z,34.05
2018-04-08T12:04:36.422Z,34.05
2018-04-08T12:05:36.418Z,33.95
2018-04-08T12:06:36.416Z,33.84
2018-04-08T12:07:36.424Z,34.13
2018-04-08T12:08:36.441Z,33.95
2018-04-08T12:09:36.408Z,34.33
2018-04-08T12:10:36.397Z,34.52
2018-04-08T12:11:36.406Z,34.25
2018-04-08T12:12:36.424Z,34.25
2018-04-08T12:13:36.378Z,33.39
2018-04-08T12:14:36.550Z,33.95
2018-04-08T12:15:36.360Z,34.44
2018-04-08T12:16:36.352Z,34.65
2018-04-08T12:17:36.357Z,33.80
2018-04-08T12:18:36.358Z,34.09
2018-04-08T12:19:36.389Z,33.31
2018-04-08T12:20:36.338Z,33.60
2018-04-08T12:21:36.331Z,33.60
2018-04-08T12:22:36.316Z,32.44
2018-04-08T12:23:36.326Z,32.73
2018-04-08T12:24:36.540Z,32.75
2018-04-08T12:25:36.447Z,33.22
2018-04-08T12:26:36.325Z,33.69
2018-04-08T12:27:36.357Z,33.97
2018-04-08T12:28:36.307Z,34.15
2018-04-08T12:29:36.568Z,34.44
2018-04-08T12:30:36.295Z,35.21
2018-04-08T12:31:36.277Z,35.41
2018-04-08T12:32:36.268Z,35.60
2018-04-08T12:33:36.265Z,34.75
2018-04-08T12:34:36.546Z,34.86
2018-04-08T12:35:36.274Z,34.09
2018-04-08T12:36:36.248Z,33.72
2018-04-08T12:37:36.244Z,33.54
2018-04-08T12:38:36.247Z,33.15
2018-04-08T12:39:36.268Z,32.76
2018-04-08T12:40:37.006Z,33.23
2018-04-08T12:41:36.227Z,33.72
2018-04-08T12:42:36.226Z,33.89
2018-04-08T12:43:36.245Z,33.87
2018-04-08T12:44:36.220Z,34.36
2018-04-08T12:45:36.208Z,34.38
2018-04-08T12:46:36.195Z,33.69
2018-04-08T12:47:36.232Z,33.49
2018-04-08T12:48:36.182Z,34.07
2018-04-08T12:49:36.179Z,33.86
2018-04-08T12:50:36.192Z,34.34
2018-04-08T12:51:36.166Z,34.34
2018-04-08T12:52:36.224Z,34.15